sensor_id;sensor_type;location;lat;lon;timestamp;P1;durP1;ratioP1;P2;durP2;ratioP2
39426;SDS011;25938;48.470;1.486;2022-07-22T00:01:02;7.15;;;5.97;;
39426;SDS011;25938;48.470;1.486;2022-07-22T00:03:28;7.47;;;6.55;;
39426;SDS011;25938;48.470;1.486;2022-07-22T00:05:54;6.75;;;6.13;;
39426;SDS011;25938;48.470;1.486;2022-07-22T00:08:20;6.78;;;6.15;;
39426;SDS011;25938;48.470;1.486;2022-07-22T00:10:46;7.30;;;5.97;;
39426;SDS011;25938;48.470;1.486;2022-07-22T00:13:12;6.43;;;5.82;;
39426;SDS011;25938;48.470;1.486;2022-07-22T00:15:39;7.45;;;6.65;;
39426;SDS011;25938;48.470;1.486;2022-07-22T00:18:05;7.03;;;5.53;;
39426;SDS011;25938;48.470;1.486;2022-07-22T00:20:31;6.63;;;5.93;;
39426;SDS011;25938;48.470;1.486;2022-07-22T00:22:57;9.07;;;5.97;;
39426;SDS011;25938;48.470;1.486;2022-07-22T00:25:23;7.32;;;6.35;;
39426;SDS011;25938;48.470;1.486;2022-07-22T00:27:49;7.38;;;6.50;;
39426;SDS011;25938;48.470;1.486;2022-07-22T00:30:15;7.60;;;6.50;;
39426;SDS011;25938;48.470;1.486;2022-07-22T00:32:41;6.18;;;5.68;;
39426;SDS011;25938;48.470;1.486;2022-07-22T00:35:07;6.85;;;6.07;;
39426;SDS011;25938;48.470;1.486;2022-07-22T00:37:33;8.07;;;6.50;;
39426;SDS011;25938;48.470;1.486;2022-07-22T00:40:00;7.45;;;6.63;;
39426;SDS011;25938;48.470;1.486;2022-07-22T00:42:26;9.70;;;6.43;;
39426;SDS011;25938;48.470;1.486;2022-07-22T00:44:52;10.90;;;6.97;;
39426;SDS011;25938;48.470;1.486;2022-07-22T00:47:18;7.78;;;5.68;;
39426;SDS011;25938;48.470;1.486;2022-07-22T00:49:44;9.10;;;6.25;;
39426;SDS011;25938;48.470;1.486;2022-07-22T00:52:10;7.05;;;6.28;;
39426;SDS011;25938;48.470;1.486;2022-07-22T00:54:36;7.10;;;6.38;;
39426;SDS011;25938;48.470;1.486;2022-07-22T00:57:03;7.68;;;6.22;;
39426;SDS011;25938;48.470;1.486;2022-07-22T00:59:29;6.00;;;5.40;;
39426;SDS011;25938;48.470;1.486;2022-07-22T01:01:55;8.73;;;6.65;;
39426;SDS011;25938;48.470;1.486;2022-07-22T01:04:22;6.82;;;6.13;;
39426;SDS011;25938;48.470;1.486;2022-07-22T01:06:48;10.10;;;6.88;;
39426;SDS011;25938;48.470;1.486;2022-07-22T01:09:14;7.60;;;6.80;;
39426;SDS011;25938;48.470;1.486;2022-07-22T01:11:40;7.60;;;6.68;;
39426;SDS011;25938;48.470;1.486;2022-07-22T01:14:06;7.72;;;6.93;;
39426;SDS011;25938;48.470;1.486;2022-07-22T01:16:32;8.68;;;7.78;;
39426;SDS011;25938;48.470;1.486;2022-07-22T01:18:58;8.77;;;6.38;;
39426;SDS011;25938;48.470;1.486;2022-07-22T01:21:25;9.20;;;7.32;;
39426;SDS011;25938;48.470;1.486;2022-07-22T01:23:51;9.30;;;7.13;;
39426;SDS011;25938;48.470;1.486;2022-07-22T01:26:17;9.38;;;7.32;;
39426;SDS011;25938;48.470;1.486;2022-07-22T01:28:43;8.45;;;7.47;;
39426;SDS011;25938;48.470;1.486;2022-07-22T01:31:10;8.80;;;7.93;;
39426;SDS011;25938;48.470;1.486;2022-07-22T01:33:36;7.70;;;6.95;;
39426;SDS011;25938;48.470;1.486;2022-07-22T01:36:03;8.43;;;7.43;;
39426;SDS011;25938;48.470;1.486;2022-07-22T01:38:29;7.90;;;7.00;;
39426;SDS011;25938;48.470;1.486;2022-07-22T01:40:55;7.60;;;6.90;;
39426;SDS011;25938;48.470;1.486;2022-07-22T01:43:22;9.85;;;8.00;;
39426;SDS011;25938;48.470;1.486;2022-07-22T01:45:50;10.35;;;8.13;;
39426;SDS011;25938;48.470;1.486;2022-07-22T01:48:17;8.32;;;7.53;;
39426;SDS011;25938;48.470;1.486;2022-07-22T01:50:44;8.75;;;7.88;;
39426;SDS011;25938;48.470;1.486;2022-07-22T01:53:10;9.35;;;7.45;;
39426;SDS011;25938;48.470;1.486;2022-07-22T01:55:36;8.15;;;7.35;;
39426;SDS011;25938;48.470;1.486;2022-07-22T01:58:02;11.13;;;8.02;;
39426;SDS011;25938;48.470;1.486;2022-07-22T02:00:29;9.10;;;7.30;;
39426;SDS011;25938;48.470;1.486;2022-07-22T02:02:55;9.35;;;7.68;;
39426;SDS011;25938;48.470;1.486;2022-07-22T02:05:32;7.65;;;6.95;;
39426;SDS011;25938;48.470;1.486;2022-07-22T02:08:05;8.50;;;7.68;;
39426;SDS011;25938;48.470;1.486;2022-07-22T02:10:32;9.07;;;7.07;;
39426;SDS011;25938;48.470;1.486;2022-07-22T02:12:58;8.82;;;7.38;;
39426;SDS011;25938;48.470;1.486;2022-07-22T02:15:25;8.13;;;7.40;;
39426;SDS011;25938;48.470;1.486;2022-07-22T02:17:51;10.05;;;7.43;;
39426;SDS011;25938;48.470;1.486;2022-07-22T02:20:17;9.27;;;8.25;;
39426;SDS011;25938;48.470;1.486;2022-07-22T02:22:43;8.95;;;7.65;;
39426;SDS011;25938;48.470;1.486;2022-07-22T02:25:10;12.05;;;7.75;;
39426;SDS011;25938;48.470;1.486;2022-07-22T02:27:37;9.38;;;8.02;;
39426;SDS011;25938;48.470;1.486;2022-07-22T02:30:03;10.27;;;7.90;;
39426;SDS011;25938;48.470;1.486;2022-07-22T02:32:29;9.93;;;7.63;;
39426;SDS011;25938;48.470;1.486;2022-07-22T02:34:55;8.98;;;8.07;;
39426;SDS011;25938;48.470;1.486;2022-07-22T02:37:22;10.18;;;8.55;;
39426;SDS011;25938;48.470;1.486;2022-07-22T02:39:48;10.82;;;8.63;;
39426;SDS011;25938;48.470;1.486;2022-07-22T02:42:14;9.65;;;6.80;;
39426;SDS011;25938;48.470;1.486;2022-07-22T02:44:40;9.07;;;7.88;;
39426;SDS011;25938;48.470;1.486;2022-07-22T02:47:06;10.30;;;7.97;;
39426;SDS011;25938;48.470;1.486;2022-07-22T02:49:32;10.55;;;8.60;;
39426;SDS011;25938;48.470;1.486;2022-07-22T02:51:58;10.88;;;8.13;;
39426;SDS011;25938;48.470;1.486;2022-07-22T02:54:24;10.73;;;8.38;;
39426;SDS011;25938;48.470;1.486;2022-07-22T02:56:51;8.88;;;7.72;;
39426;SDS011;25938;48.470;1.486;2022-07-22T02:59:17;9.43;;;7.78;;
39426;SDS011;25938;48.470;1.486;2022-07-22T03:01:43;9.77;;;8.43;;
39426;SDS011;25938;48.470;1.486;2022-07-22T03:04:09;11.55;;;8.82;;
39426;SDS011;25938;48.470;1.486;2022-07-22T03:06:35;10.10;;;8.48;;
39426;SDS011;25938;48.470;1.486;2022-07-22T03:09:01;9.60;;;8.57;;
39426;SDS011;25938;48.470;1.486;2022-07-22T03:11:27;10.27;;;8.77;;
39426;SDS011;25938;48.470;1.486;2022-07-22T03:13:53;12.38;;;9.18;;
39426;SDS011;25938;48.470;1.486;2022-07-22T03:16:19;11.20;;;8.57;;
39426;SDS011;25938;48.470;1.486;2022-07-22T03:18:45;10.75;;;8.95;;
39426;SDS011;25938;48.470;1.486;2022-07-22T03:21:11;10.48;;;8.48;;
39426;SDS011;25938;48.470;1.486;2022-07-22T03:23:37;9.43;;;8.38;;
39426;SDS011;25938;48.470;1.486;2022-07-22T03:26:04;10.23;;;8.68;;
39426;SDS011;25938;48.470;1.486;2022-07-22T03:28:30;13.15;;;9.52;;
39426;SDS011;25938;48.470;1.486;2022-07-22T03:30:56;10.38;;;8.85;;
39426;SDS011;25938;48.470;1.486;2022-07-22T03:33:22;8.98;;;8.00;;
39426;SDS011;25938;48.470;1.486;2022-07-22T03:35:48;9.70;;;8.70;;
39426;SDS011;25938;48.470;1.486;2022-07-22T03:38:14;9.65;;;8.65;;
39426;SDS011;25938;48.470;1.486;2022-07-22T03:40:40;14.27;;;9.35;;
39426;SDS011;25938;48.470;1.486;2022-07-22T03:43:06;10.93;;;8.82;;
39426;SDS011;25938;48.470;1.486;2022-07-22T03:45:32;10.05;;;8.75;;
39426;SDS011;25938;48.470;1.486;2022-07-22T03:47:58;11.88;;;8.95;;
39426;SDS011;25938;48.470;1.486;2022-07-22T03:50:24;12.40;;;9.98;;
39426;SDS011;25938;48.470;1.486;2022-07-22T03:52:51;10.57;;;9.45;;
39426;SDS011;25938;48.470;1.486;2022-07-22T03:55:17;10.45;;;9.23;;
39426;SDS011;25938;48.470;1.486;2022-07-22T03:57:43;9.85;;;8.85;;
39426;SDS011;25938;48.470;1.486;2022-07-22T04:00:09;15.10;;;10.32;;
39426;SDS011;25938;48.470;1.486;2022-07-22T04:02:35;11.98;;;9.35;;
39426;SDS011;25938;48.470;1.486;2022-07-22T04:05:01;10.60;;;9.43;;
39426;SDS011;25938;48.470;1.486;2022-07-22T04:07:27;11.10;;;9.73;;
39426;SDS011;25938;48.470;1.486;2022-07-22T04:09:53;12.90;;;10.25;;
39426;SDS011;25938;48.470;1.486;2022-07-22T04:12:30;13.07;;;9.65;;
39426;SDS011;25938;48.470;1.486;2022-07-22T04:14:56;11.15;;;9.85;;
39426;SDS011;25938;48.470;1.486;2022-07-22T04:17:22;11.55;;;9.70;;
39426;SDS011;25938;48.470;1.486;2022-07-22T04:19:48;11.82;;;10.15;;
39426;SDS011;25938;48.470;1.486;2022-07-22T04:22:14;15.20;;;9.55;;
39426;SDS011;25938;48.470;1.486;2022-07-22T04:24:40;15.02;;;11.38;;
39426;SDS011;25938;48.470;1.486;2022-07-22T04:27:06;11.80;;;9.73;;
39426;SDS011;25938;48.470;1.486;2022-07-22T04:29:32;13.30;;;11.00;;
39426;SDS011;25938;48.470;1.486;2022-07-22T04:31:58;13.75;;;10.75;;
39426;SDS011;25938;48.470;1.486;2022-07-22T04:34:24;11.63;;;10.43;;
39426;SDS011;25938;48.470;1.486;2022-07-22T04:36:51;11.02;;;9.30;;
39426;SDS011;25938;48.470;1.486;2022-07-22T04:39:17;15.25;;;10.02;;
39426;SDS011;25938;48.470;1.486;2022-07-22T04:41:43;12.85;;;10.00;;
39426;SDS011;25938;48.470;1.486;2022-07-22T04:44:09;13.63;;;10.50;;
39426;SDS011;25938;48.470;1.486;2022-07-22T04:46:35;13.88;;;11.18;;
39426;SDS011;25938;48.470;1.486;2022-07-22T04:49:01;11.27;;;10.07;;
39426;SDS011;25938;48.470;1.486;2022-07-22T04:51:27;13.40;;;11.30;;
39426;SDS011;25938;48.470;1.486;2022-07-22T04:53:54;16.98;;;12.20;;
39426;SDS011;25938;48.470;1.486;2022-07-22T04:56:20;14.95;;;11.48;;
39426;SDS011;25938;48.470;1.486;2022-07-22T04:58:46;17.83;;;13.40;;
39426;SDS011;25938;48.470;1.486;2022-07-22T05:01:12;16.33;;;11.30;;
39426;SDS011;25938;48.470;1.486;2022-07-22T05:03:42;17.38;;;12.60;;
39426;SDS011;25938;48.470;1.486;2022-07-22T05:06:08;16.10;;;13.00;;
39426;SDS011;25938;48.470;1.486;2022-07-22T05:08:34;15.10;;;12.10;;
39426;SDS011;25938;48.470;1.486;2022-07-22T05:11:00;15.18;;;12.23;;
39426;SDS011;25938;48.470;1.486;2022-07-22T05:13:27;15.80;;;11.95;;
39426;SDS011;25938;48.470;1.486;2022-07-22T05:15:53;15.32;;;11.90;;
39426;SDS011;25938;48.470;1.486;2022-07-22T05:18:19;18.20;;;12.30;;
39426;SDS011;25938;48.470;1.486;2022-07-22T05:20:45;14.07;;;12.38;;
39426;SDS011;25938;48.470;1.486;2022-07-22T05:23:11;14.70;;;12.40;;
39426;SDS011;25938;48.470;1.486;2022-07-22T05:25:37;16.58;;;12.85;;
39426;SDS011;25938;48.470;1.486;2022-07-22T05:28:03;14.65;;;11.90;;
39426;SDS011;25938;48.470;1.486;2022-07-22T05:30:29;16.70;;;12.65;;
39426;SDS011;25938;48.470;1.486;2022-07-22T05:32:55;13.45;;;11.57;;
39426;SDS011;25938;48.470;1.486;2022-07-22T05:35:21;15.40;;;12.77;;
39426;SDS011;25938;48.470;1.486;2022-07-22T05:37:47;16.33;;;12.40;;
39426;SDS011;25938;48.470;1.486;2022-07-22T05:40:13;17.98;;;12.43;;
39426;SDS011;25938;48.470;1.486;2022-07-22T05:42:40;17.52;;;14.38;;
39426;SDS011;25938;48.470;1.486;2022-07-22T05:45:06;16.10;;;11.90;;
39426;SDS011;25938;48.470;1.486;2022-07-22T05:47:32;12.65;;;11.27;;
39426;SDS011;25938;48.470;1.486;2022-07-22T05:49:58;12.88;;;11.38;;
39426;SDS011;25938;48.470;1.486;2022-07-22T05:52:24;16.42;;;11.68;;
39426;SDS011;25938;48.470;1.486;2022-07-22T05:54:50;16.45;;;12.70;;
39426;SDS011;25938;48.470;1.486;2022-07-22T05:57:16;16.63;;;12.10;;
39426;SDS011;25938;48.470;1.486;2022-07-22T05:59:43;14.98;;;11.27;;
39426;SDS011;25938;48.470;1.486;2022-07-22T06:02:09;14.88;;;12.05;;
39426;SDS011;25938;48.470;1.486;2022-07-22T06:04:35;13.90;;;11.00;;
39426;SDS011;25938;48.470;1.486;2022-07-22T06:07:01;16.95;;;11.25;;
39426;SDS011;25938;48.470;1.486;2022-07-22T06:09:27;12.05;;;10.75;;
39426;SDS011;25938;48.470;1.486;2022-07-22T06:11:53;13.05;;;10.10;;
39426;SDS011;25938;48.470;1.486;2022-07-22T06:14:19;16.08;;;11.32;;
39426;SDS011;25938;48.470;1.486;2022-07-22T06:16:45;12.52;;;10.45;;
39426;SDS011;25938;48.470;1.486;2022-07-22T06:19:11;13.90;;;10.32;;
39426;SDS011;25938;48.470;1.486;2022-07-22T06:21:37;14.93;;;10.88;;
39426;SDS011;25938;48.470;1.486;2022-07-22T06:24:04;13.00;;;9.45;;
39426;SDS011;25938;48.470;1.486;2022-07-22T06:26:30;15.00;;;10.68;;
39426;SDS011;25938;48.470;1.486;2022-07-22T06:28:56;14.50;;;10.70;;
39426;SDS011;25938;48.470;1.486;2022-07-22T06:31:22;15.57;;;9.88;;
39426;SDS011;25938;48.470;1.486;2022-07-22T06:33:48;12.70;;;9.63;;
39426;SDS011;25938;48.470;1.486;2022-07-22T06:36:14;13.27;;;10.50;;
39426;SDS011;25938;48.470;1.486;2022-07-22T06:38:42;15.05;;;10.73;;
39426;SDS011;25938;48.470;1.486;2022-07-22T06:41:08;15.70;;;10.23;;
39426;SDS011;25938;48.470;1.486;2022-07-22T06:43:35;11.68;;;9.27;;
39426;SDS011;25938;48.470;1.486;2022-07-22T06:46:01;11.27;;;9.38;;
39426;SDS011;25938;48.470;1.486;2022-07-22T06:48:27;11.15;;;9.95;;
39426;SDS011;25938;48.470;1.486;2022-07-22T06:50:53;13.75;;;9.75;;
39426;SDS011;25938;48.470;1.486;2022-07-22T06:53:19;10.70;;;8.70;;
39426;SDS011;25938;48.470;1.486;2022-07-22T06:55:46;12.38;;;9.15;;
39426;SDS011;25938;48.470;1.486;2022-07-22T06:58:12;9.38;;;7.82;;
39426;SDS011;25938;48.470;1.486;2022-07-22T07:00:38;11.30;;;8.85;;
39426;SDS011;25938;48.470;1.486;2022-07-22T07:03:04;14.65;;;10.73;;
39426;SDS011;25938;48.470;1.486;2022-07-22T07:05:30;12.88;;;9.48;;
39426;SDS011;25938;48.470;1.486;2022-07-22T07:07:56;12.95;;;9.88;;
39426;SDS011;25938;48.470;1.486;2022-07-22T07:10:22;11.45;;;9.27;;
39426;SDS011;25938;48.470;1.486;2022-07-22T07:12:48;13.25;;;9.80;;
39426;SDS011;25938;48.470;1.486;2022-07-22T07:15:14;15.07;;;9.10;;
39426;SDS011;25938;48.470;1.486;2022-07-22T07:17:40;15.57;;;9.05;;
39426;SDS011;25938;48.470;1.486;2022-07-22T07:20:06;10.35;;;8.75;;
39426;SDS011;25938;48.470;1.486;2022-07-22T07:22:33;12.25;;;9.27;;
39426;SDS011;25938;48.470;1.486;2022-07-22T07:25:03;12.75;;;8.60;;
39426;SDS011;25938;48.470;1.486;2022-07-22T07:27:29;11.68;;;9.07;;
39426;SDS011;25938;48.470;1.486;2022-07-22T07:29:55;16.67;;;11.70;;
39426;SDS011;25938;48.470;1.486;2022-07-22T07:32:21;8.43;;;7.20;;
39426;SDS011;25938;48.470;1.486;2022-07-22T07:34:47;12.00;;;9.73;;
39426;SDS011;25938;48.470;1.486;2022-07-22T07:37:13;12.45;;;8.85;;
39426;SDS011;25938;48.470;1.486;2022-07-22T07:39:40;11.80;;;9.02;;
39426;SDS011;25938;48.470;1.486;2022-07-22T07:42:06;10.55;;;9.55;;
39426;SDS011;25938;48.470;1.486;2022-07-22T07:44:32;12.20;;;9.45;;
39426;SDS011;25938;48.470;1.486;2022-07-22T07:46:58;13.25;;;10.40;;
39426;SDS011;25938;48.470;1.486;2022-07-22T07:49:24;13.23;;;8.10;;
39426;SDS011;25938;48.470;1.486;2022-07-22T07:51:51;10.90;;;8.00;;
39426;SDS011;25938;48.470;1.486;2022-07-22T07:54:17;9.35;;;8.45;;
39426;SDS011;25938;48.470;1.486;2022-07-22T07:56:43;12.18;;;8.18;;
39426;SDS011;25938;48.470;1.486;2022-07-22T07:59:09;10.15;;;8.32;;
39426;SDS011;25938;48.470;1.486;2022-07-22T08:01:35;11.85;;;9.18;;
39426;SDS011;25938;48.470;1.486;2022-07-22T08:04:01;11.02;;;8.82;;
39426;SDS011;25938;48.470;1.486;2022-07-22T08:06:27;11.25;;;8.18;;
39426;SDS011;25938;48.470;1.486;2022-07-22T08:08:53;8.27;;;7.40;;
39426;SDS011;25938;48.470;1.486;2022-07-22T08:11:19;11.07;;;9.20;;
39426;SDS011;25938;48.470;1.486;2022-07-22T08:13:46;10.98;;;7.70;;
39426;SDS011;25938;48.470;1.486;2022-07-22T08:16:12;9.55;;;8.25;;
39426;SDS011;25938;48.470;1.486;2022-07-22T08:18:38;13.68;;;9.32;;
39426;SDS011;25938;48.470;1.486;2022-07-22T08:21:05;9.98;;;8.82;;
39426;SDS011;25938;48.470;1.486;2022-07-22T08:23:31;11.70;;;8.55;;
39426;SDS011;25938;48.470;1.486;2022-07-22T08:25:57;11.93;;;7.90;;
39426;SDS011;25938;48.470;1.486;2022-07-22T08:28:23;11.15;;;8.18;;
39426;SDS011;25938;48.470;1.486;2022-07-22T08:30:50;10.02;;;7.90;;
39426;SDS011;25938;48.470;1.486;2022-07-22T08:33:16;11.23;;;7.63;;
39426;SDS011;25938;48.470;1.486;2022-07-22T08:35:42;23.95;;;17.67;;
39426;SDS011;25938;48.470;1.486;2022-07-22T08:38:08;9.85;;;8.27;;
39426;SDS011;25938;48.470;1.486;2022-07-22T08:40:34;9.88;;;8.02;;
39426;SDS011;25938;48.470;1.486;2022-07-22T08:43:00;11.15;;;7.38;;
39426;SDS011;25938;48.470;1.486;2022-07-22T08:45:28;12.80;;;9.10;;
39426;SDS011;25938;48.470;1.486;2022-07-22T08:47:54;8.68;;;7.75;;
39426;SDS011;25938;48.470;1.486;2022-07-22T08:50:20;9.88;;;7.72;;
39426;SDS011;25938;48.470;1.486;2022-07-22T08:52:46;10.10;;;8.48;;
39426;SDS011;25938;48.470;1.486;2022-07-22T08:55:12;10.23;;;8.18;;
39426;SDS011;25938;48.470;1.486;2022-07-22T08:57:43;12.25;;;8.48;;
39426;SDS011;25938;48.470;1.486;2022-07-22T09:00:10;10.15;;;8.68;;
39426;SDS011;25938;48.470;1.486;2022-07-22T09:02:37;10.23;;;8.00;;
39426;SDS011;25938;48.470;1.486;2022-07-22T09:05:05;10.45;;;8.70;;
39426;SDS011;25938;48.470;1.486;2022-07-22T09:07:35;11.50;;;9.15;;
39426;SDS011;25938;48.470;1.486;2022-07-22T09:10:06;10.90;;;8.80;;
39426;SDS011;25938;48.470;1.486;2022-07-22T09:12:32;10.43;;;9.20;;
39426;SDS011;25938;48.470;1.486;2022-07-22T09:14:59;14.10;;;9.70;;
39426;SDS011;25938;48.470;1.486;2022-07-22T09:17:30;13.35;;;9.75;;
39426;SDS011;25938;48.470;1.486;2022-07-22T09:19:57;12.27;;;10.05;;
39426;SDS011;25938;48.470;1.486;2022-07-22T09:24:56;11.30;;;9.68;;
39426;SDS011;25938;48.470;1.486;2022-07-22T09:27:23;13.65;;;10.43;;
39426;SDS011;25938;48.470;1.486;2022-07-22T09:29:50;10.38;;;9.27;;
39426;SDS011;25938;48.470;1.486;2022-07-22T09:32:16;14.30;;;10.05;;
39426;SDS011;25938;48.470;1.486;2022-07-22T09:34:42;11.25;;;9.50;;
39426;SDS011;25938;48.470;1.486;2022-07-22T09:37:08;14.10;;;10.20;;
39426;SDS011;25938;48.470;1.486;2022-07-22T09:39:34;11.80;;;10.60;;
39426;SDS011;25938;48.470;1.486;2022-07-22T09:42:01;14.77;;;11.32;;
39426;SDS011;25938;48.470;1.486;2022-07-22T09:44:27;10.57;;;9.48;;
39426;SDS011;25938;48.470;1.486;2022-07-22T09:46:53;11.65;;;10.38;;
39426;SDS011;25938;48.470;1.486;2022-07-22T09:52:14;12.32;;;10.70;;
39426;SDS011;25938;48.470;1.486;2022-07-22T09:54:41;14.77;;;11.27;;
39426;SDS011;25938;48.470;1.486;2022-07-22T09:57:07;12.35;;;10.50;;
39426;SDS011;25938;48.470;1.486;2022-07-22T09:59:33;11.45;;;10.18;;
39426;SDS011;25938;48.470;1.486;2022-07-22T10:01:59;12.63;;;9.90;;
39426;SDS011;25938;48.470;1.486;2022-07-22T10:04:30;13.48;;;9.48;;
39426;SDS011;25938;48.470;1.486;2022-07-22T10:06:56;17.38;;;10.75;;
39426;SDS011;25938;48.470;1.486;2022-07-22T10:09:23;12.20;;;10.88;;
39426;SDS011;25938;48.470;1.486;2022-07-22T10:14:53;13.35;;;10.45;;
39426;SDS011;25938;48.470;1.486;2022-07-22T10:17:20;11.85;;;9.55;;
39426;SDS011;25938;48.470;1.486;2022-07-22T10:19:46;12.68;;;10.05;;
39426;SDS011;25938;48.470;1.486;2022-07-22T10:25:00;12.60;;;9.45;;
39426;SDS011;25938;48.470;1.486;2022-07-22T10:30:12;10.80;;;9.57;;
39426;SDS011;25938;48.470;1.486;2022-07-22T10:32:39;18.33;;;9.65;;
39426;SDS011;25938;48.470;1.486;2022-07-22T10:37:37;11.40;;;9.55;;
39426;SDS011;25938;48.470;1.486;2022-07-22T10:45:45;11.82;;;9.63;;
39426;SDS011;25938;48.470;1.486;2022-07-22T10:50:45;11.52;;;8.88;;
39426;SDS011;25938;48.470;1.486;2022-07-22T10:53:25;10.50;;;7.82;;
39426;SDS011;25938;48.470;1.486;2022-07-22T10:56:08;10.27;;;8.65;;
39426;SDS011;25938;48.470;1.486;2022-07-22T11:01:05;12.00;;;10.10;;
39426;SDS011;25938;48.470;1.486;2022-07-22T11:03:32;13.60;;;11.10;;
39426;SDS011;25938;48.470;1.486;2022-07-22T11:06:15;10.27;;;9.27;;
39426;SDS011;25938;48.470;1.486;2022-07-22T11:08:41;10.93;;;8.38;;
39426;SDS011;25938;48.470;1.486;2022-07-22T11:11:08;10.70;;;8.50;;
39426;SDS011;25938;48.470;1.486;2022-07-22T11:13:38;12.93;;;10.18;;
39426;SDS011;25938;48.470;1.486;2022-07-22T11:16:21;10.23;;;9.20;;
39426;SDS011;25938;48.470;1.486;2022-07-22T11:21:14;11.00;;;9.40;;
39426;SDS011;25938;48.470;1.486;2022-07-22T11:23:41;8.95;;;8.13;;
39426;SDS011;25938;48.470;1.486;2022-07-22T11:26:13;12.73;;;9.13;;
39426;SDS011;25938;48.470;1.486;2022-07-22T11:28:43;9.77;;;7.75;;
39426;SDS011;25938;48.470;1.486;2022-07-22T11:31:12;8.98;;;7.90;;
39426;SDS011;25938;48.470;1.486;2022-07-22T11:33:39;9.63;;;7.93;;
39426;SDS011;25938;48.470;1.486;2022-07-22T11:36:06;9.65;;;7.57;;
39426;SDS011;25938;48.470;1.486;2022-07-22T11:38:47;11.15;;;8.38;;
39426;SDS011;25938;48.470;1.486;2022-07-22T11:41:17;10.02;;;8.02;;
39426;SDS011;25938;48.470;1.486;2022-07-22T11:43:47;11.23;;;8.13;;
39426;SDS011;25938;48.470;1.486;2022-07-22T11:46:15;8.88;;;7.95;;
39426;SDS011;25938;48.470;1.486;2022-07-22T11:48:41;9.90;;;8.90;;
39426;SDS011;25938;48.470;1.486;2022-07-22T11:51:08;11.18;;;8.75;;
39426;SDS011;25938;48.470;1.486;2022-07-22T11:53:38;9.20;;;8.30;;
39426;SDS011;25938;48.470;1.486;2022-07-22T11:56:05;9.35;;;7.85;;
39426;SDS011;25938;48.470;1.486;2022-07-22T11:58:38;8.65;;;7.47;;
39426;SDS011;25938;48.470;1.486;2022-07-22T12:01:05;9.38;;;8.52;;
39426;SDS011;25938;48.470;1.486;2022-07-22T12:03:33;8.90;;;7.82;;
39426;SDS011;25938;48.470;1.486;2022-07-22T12:05:59;8.32;;;7.55;;
39426;SDS011;25938;48.470;1.486;2022-07-22T12:08:25;10.93;;;8.35;;
39426;SDS011;25938;48.470;1.486;2022-07-22T12:10:52;7.68;;;6.97;;
39426;SDS011;25938;48.470;1.486;2022-07-22T12:13:18;9.15;;;7.30;;
39426;SDS011;25938;48.470;1.486;2022-07-22T12:15:44;8.88;;;8.07;;
39426;SDS011;25938;48.470;1.486;2022-07-22T12:18:14;6.63;;;5.93;;
39426;SDS011;25938;48.470;1.486;2022-07-22T12:20:44;5.97;;;4.78;;
39426;SDS011;25938;48.470;1.486;2022-07-22T12:23:10;8.50;;;7.32;;
39426;SDS011;25938;48.470;1.486;2022-07-22T12:28:38;10.70;;;8.60;;
39426;SDS011;25938;48.470;1.486;2022-07-22T12:31:04;7.65;;;6.75;;
39426;SDS011;25938;48.470;1.486;2022-07-22T12:33:30;6.53;;;5.82;;
39426;SDS011;25938;48.470;1.486;2022-07-22T12:36:06;8.45;;;7.28;;
39426;SDS011;25938;48.470;1.486;2022-07-22T12:38:32;9.50;;;7.43;;
39426;SDS011;25938;48.470;1.486;2022-07-22T12:43:43;9.95;;;7.95;;
39426;SDS011;25938;48.470;1.486;2022-07-22T12:46:09;9.48;;;7.13;;
39426;SDS011;25938;48.470;1.486;2022-07-22T12:48:35;10.73;;;7.38;;
39426;SDS011;25938;48.470;1.486;2022-07-22T12:51:01;7.78;;;6.63;;
39426;SDS011;25938;48.470;1.486;2022-07-22T12:53:27;8.77;;;7.20;;
39426;SDS011;25938;48.470;1.486;2022-07-22T12:55:55;9.63;;;7.40;;
39426;SDS011;25938;48.470;1.486;2022-07-22T12:58:23;8.40;;;6.43;;
39426;SDS011;25938;48.470;1.486;2022-07-22T13:00:50;12.00;;;6.90;;
39426;SDS011;25938;48.470;1.486;2022-07-22T13:03:16;9.13;;;7.90;;
39426;SDS011;25938;48.470;1.486;2022-07-22T13:05:44;8.07;;;7.07;;
39426;SDS011;25938;48.470;1.486;2022-07-22T13:08:10;9.15;;;7.20;;
39426;SDS011;25938;48.470;1.486;2022-07-22T13:10:36;7.15;;;4.93;;
39426;SDS011;25938;48.470;1.486;2022-07-22T13:13:02;8.18;;;7.15;;
39426;SDS011;25938;48.470;1.486;2022-07-22T13:15:28;8.05;;;7.20;;
39426;SDS011;25938;48.470;1.486;2022-07-22T13:17:54;8.63;;;7.60;;
39426;SDS011;25938;48.470;1.486;2022-07-22T13:20:20;9.50;;;6.93;;
39426;SDS011;25938;48.470;1.486;2022-07-22T13:22:46;7.72;;;6.97;;
39426;SDS011;25938;48.470;1.486;2022-07-22T13:25:13;7.03;;;6.35;;
39426;SDS011;25938;48.470;1.486;2022-07-22T13:27:39;9.43;;;8.50;;
39426;SDS011;25938;48.470;1.486;2022-07-22T13:30:06;8.40;;;7.60;;
39426;SDS011;25938;48.470;1.486;2022-07-22T13:32:32;9.75;;;7.70;;
39426;SDS011;25938;48.470;1.486;2022-07-22T13:34:58;8.68;;;7.78;;
39426;SDS011;25938;48.470;1.486;2022-07-22T13:37:24;9.10;;;8.20;;
39426;SDS011;25938;48.470;1.486;2022-07-22T13:39:51;8.30;;;7.45;;
39426;SDS011;25938;48.470;1.486;2022-07-22T13:42:27;8.80;;;7.90;;
39426;SDS011;25938;48.470;1.486;2022-07-22T13:44:53;10.30;;;7.85;;
39426;SDS011;25938;48.470;1.486;2022-07-22T13:47:20;7.30;;;6.55;;
39426;SDS011;25938;48.470;1.486;2022-07-22T13:49:46;11.45;;;8.15;;
39426;SDS011;25938;48.470;1.486;2022-07-22T13:52:13;12.05;;;9.27;;
39426;SDS011;25938;48.470;1.486;2022-07-22T13:54:40;8.68;;;7.97;;
39426;SDS011;25938;48.470;1.486;2022-07-22T13:57:06;7.95;;;7.13;;
39426;SDS011;25938;48.470;1.486;2022-07-22T13:59:32;9.68;;;7.50;;
39426;SDS011;25938;48.470;1.486;2022-07-22T14:01:58;8.90;;;7.95;;
39426;SDS011;25938;48.470;1.486;2022-07-22T14:04:26;8.73;;;7.93;;
39426;SDS011;25938;48.470;1.486;2022-07-22T14:06:52;8.95;;;7.93;;
39426;SDS011;25938;48.470;1.486;2022-07-22T14:09:18;9.00;;;8.05;;
39426;SDS011;25938;48.470;1.486;2022-07-22T14:11:44;8.05;;;7.22;;
39426;SDS011;25938;48.470;1.486;2022-07-22T14:14:10;10.02;;;8.05;;
39426;SDS011;25938;48.470;1.486;2022-07-22T14:16:37;9.55;;;7.70;;
39426;SDS011;25938;48.470;1.486;2022-07-22T14:19:05;10.30;;;8.35;;
39426;SDS011;25938;48.470;1.486;2022-07-22T14:21:32;8.65;;;7.85;;
39426;SDS011;25938;48.470;1.486;2022-07-22T14:23:58;10.73;;;8.68;;
39426;SDS011;25938;48.470;1.486;2022-07-22T14:26:24;10.15;;;9.18;;
39426;SDS011;25938;48.470;1.486;2022-07-22T14:28:50;14.18;;;9.73;;
39426;SDS011;25938;48.470;1.486;2022-07-22T14:31:16;9.52;;;8.52;;
39426;SDS011;25938;48.470;1.486;2022-07-22T14:33:42;8.48;;;7.55;;
39426;SDS011;25938;48.470;1.486;2022-07-22T14:36:08;9.38;;;8.38;;
39426;SDS011;25938;48.470;1.486;2022-07-22T14:38:35;10.55;;;8.90;;
39426;SDS011;25938;48.470;1.486;2022-07-22T14:41:01;8.93;;;7.82;;
39426;SDS011;25938;48.470;1.486;2022-07-22T14:43:27;9.18;;;8.23;;
39426;SDS011;25938;48.470;1.486;2022-07-22T14:45:53;10.35;;;8.73;;
39426;SDS011;25938;48.470;1.486;2022-07-22T14:48:19;10.45;;;8.90;;
39426;SDS011;25938;48.470;1.486;2022-07-22T14:50:45;8.07;;;7.20;;
39426;SDS011;25938;48.470;1.486;2022-07-22T14:53:11;10.75;;;8.07;;
39426;SDS011;25938;48.470;1.486;2022-07-22T14:55:38;9.55;;;7.07;;
39426;SDS011;25938;48.470;1.486;2022-07-22T14:58:04;6.32;;;5.70;;
39426;SDS011;25938;48.470;1.486;2022-07-22T15:00:30;9.02;;;7.78;;
39426;SDS011;25938;48.470;1.486;2022-07-22T15:02:56;8.82;;;7.93;;
39426;SDS011;25938;48.470;1.486;2022-07-22T15:05:22;11.10;;;8.23;;
39426;SDS011;25938;48.470;1.486;2022-07-22T15:07:49;8.75;;;7.93;;
39426;SDS011;25938;48.470;1.486;2022-07-22T15:10:15;9.02;;;8.13;;